createdAt,value
2022-08-26T00:01:01.243Z,47.33
2022-08-26T00:04:03.666Z,46.71
2022-08-26T00:07:06.259Z,46.79
2022-08-26T00:10:08.358Z,47.02
2022-08-26T00:13:11.621Z,48.90
2022-08-26T00:16:13.244Z,49.15
2022-08-26T00:19:19.626Z,47.63
2022-08-26T00:22:22.166Z,47.60
2022-08-26T00:25:24.315Z,47.20
2022-08-26T00:28:26.724Z,49.02
2022-08-26T00:31:28.805Z,50.53
2022-08-26T00:34:33.054Z,49.90
2022-08-26T00:37:34.899Z,50.87
2022-08-26T00:40:40.910Z,50.57
2022-08-26T00:43:46.307Z,50.90
2022-08-26T00:46:52.843Z,49.65
2022-08-26T00:49:56.676Z,50.11
2022-08-26T00:53:01.859Z,51.43
2022-08-26T00:56:17.592Z,51.02
2022-08-26T00:59:20.411Z,49.53
2022-08-26T01:02:22.931Z,49.29
2022-08-26T01:05:25.363Z,48.73
2022-08-26T01:08:27.445Z,48.74
2022-08-26T01:11:29.407Z,49.67
2022-08-26T01:14:33.954Z,50.45
2022-08-26T01:17:37.565Z,51.43
2022-08-26T01:20:48.223Z,51.47
2022-08-26T01:23:51.738Z,51.99
2022-08-26T01:27:05.219Z,50.73
2022-08-26T01:30:07.554Z,51.50
2022-08-26T01:33:13.000Z,52.45
2022-08-26T01:36:15.282Z,52.34
2022-08-26T01:39:18.156Z,52.20
2022-08-26T01:42:22.300Z,52.61
2022-08-26T01:45:29.666Z,52.21
2022-08-26T01:48:34.297Z,52.39
2022-08-26T01:51:39.254Z,52.87
2022-08-26T01:54:41.344Z,50.79
2022-08-26T01:57:52.117Z,50.70
2022-08-26T02:00:58.699Z,52.93
2022-08-26T02:04:09.918Z,53.13
2022-08-26T02:07:12.345Z,52.97
2022-08-26T02:10:15.082Z,52.59
2022-08-26T02:13:16.949Z,52.46
2022-08-26T02:16:24.451Z,52.23
2022-08-26T02:19:30.185Z,52.66
2022-08-26T02:22:32.418Z,52.34
2022-08-26T02:25:39.887Z,51.99
2022-08-26T02:28:52.816Z,51.30
2022-08-26T02:31:55.764Z,50.50
2022-08-26T02:34:57.402Z,49.75
2022-08-26T02:38:00.613Z,49.27
2022-08-26T02:41:02.345Z,48.80
2022-08-26T02:44:04.461Z,48.47
2022-08-26T02:47:08.077Z,48.48
2022-08-26T02:50:09.766Z,48.61
2022-08-26T02:53:12.195Z,49.04
2022-08-26T02:56:14.677Z,48.92
2022-08-26T02:59:16.240Z,48.53
2022-08-26T03:02:18.372Z,48.42
2022-08-26T03:05:22.032Z,48.73
2022-08-26T03:08:25.680Z,49.55
2022-08-26T03:11:32.267Z,49.30
2022-08-26T03:14:34.273Z,49.64
2022-08-26T03:17:35.719Z,49.40
2022-08-26T03:20:37.373Z,49.31
2022-08-26T03:23:40.143Z,49.63
2022-08-26T03:26:52.076Z,49.13
2022-08-26T03:30:12.877Z,48.71
2022-08-26T03:33:16.355Z,49.19
2022-08-26T03:36:19.103Z,49.17
2022-08-26T03:39:20.716Z,49.04
2022-08-26T03:42:23.561Z,48.31
2022-08-26T03:45:25.525Z,48.94
2022-08-26T03:48:26.961Z,49.76
2022-08-26T03:51:29.185Z,50.34
2022-08-26T03:54:30.688Z,50.19
2022-08-26T03:57:32.406Z,49.96
2022-08-26T04:00:34.402Z,49.61
2022-08-26T04:03:54.282Z,48.98
2022-08-26T04:06:58.420Z,48.50
2022-08-26T04:10:00.072Z,49.00
2022-08-26T04:13:02.385Z,49.69
2022-08-26T04:16:03.937Z,49.68
2022-08-26T04:19:06.520Z,49.61
2022-08-26T04:22:08.722Z,50.03
2022-08-26T04:25:12.455Z,51.35
2022-08-26T04:28:14.751Z,51.94
2022-08-26T04:31:17.597Z,52.28
2022-08-26T04:34:21.144Z,52.39
2022-08-26T04:37:23.207Z,52.46
2022-08-26T04:40:27.586Z,53.11
2022-08-26T04:43:31.217Z,51.61
2022-08-26T04:46:33.127Z,52.15
2022-08-26T04:49:35.391Z,51.31
2022-08-26T04:52:37.326Z,50.71
2022-08-26T04:55:39.939Z,50.69
2022-08-26T04:58:45.648Z,50.68
2022-08-26T05:01:50.198Z,50.67
2022-08-26T05:04:52.360Z,50.34
2022-08-26T05:07:53.928Z,50.79
2022-08-26T05:10:56.270Z,50.99
2022-08-26T05:14:01.605Z,52.11
2022-08-26T05:17:04.150Z,51.82
2022-08-26T05:20:06.759Z,52.73
2022-08-26T05:23:08.529Z,51.58
2022-08-26T05:26:10.501Z,52.04
2022-08-26T05:29:12.510Z,52.10
2022-08-26T05:32:14.855Z,52.07
2022-08-26T05:35:17.655Z,52.08
2022-08-26T05:38:21.825Z,52.00
2022-08-26T05:41:34.339Z,51.78
2022-08-26T05:44:55.520Z,51.90
2022-08-26T05:47:57.857Z,51.84
2022-08-26T05:51:03.832Z,51.84
2022-08-26T05:54:06.894Z,51.43
2022-08-26T05:57:08.352Z,51.90
2022-08-26T06:00:11.496Z,52.22
2022-08-26T06:03:13.775Z,52.18
2022-08-26T06:06:27.460Z,51.71
2022-08-26T06:09:29.564Z,51.22
2022-08-26T06:12:32.531Z,52.77
2022-08-26T06:15:35.513Z,53.86
2022-08-26T06:18:40.049Z,53.84
2022-08-26T06:21:45.016Z,54.00
2022-08-26T06:25:05.284Z,51.98
2022-08-26T06:28:07.913Z,51.22
2022-08-26T06:31:10.127Z,50.19
2022-08-26T06:34:12.770Z,49.57
2022-08-26T06:37:14.219Z,49.04
2022-08-26T06:40:15.688Z,50.31
2022-08-26T06:43:19.787Z,49.42
2022-08-26T06:46:22.012Z,49.88
2022-08-26T06:49:26.735Z,48.59
2022-08-26T06:52:29.329Z,49.06
2022-08-26T06:55:30.880Z,48.92
2022-08-26T06:58:34.219Z,50.26
2022-08-26T07:01:39.257Z,50.52
2022-08-26T07:04:44.574Z,48.57
2022-08-26T07:07:49.449Z,48.17
2022-08-26T07:10:51.109Z,47.62
2022-08-26T07:13:58.879Z,47.45
2022-08-26T07:17:02.782Z,47.66
2022-08-26T07:20:07.568Z,50.30
2022-08-26T07:23:11.844Z,50.80
2022-08-26T07:26:16.714Z,47.98
2022-08-26T07:29:18.537Z,47.71
2022-08-26T07:32:20.998Z,49.19
2022-08-26T07:35:25.918Z,46.33
2022-08-26T07:38:27.973Z,46.51
2022-08-26T07:41:31.157Z,46.58
2022-08-26T07:44:33.459Z,45.08
2022-08-26T07:47:35.031Z,44.85
2022-08-26T07:50:49.126Z,44.01
2022-08-26T07:53:52.531Z,44.01
2022-08-26T07:56:55.903Z,42.34
2022-08-26T07:59:57.641Z,43.27
2022-08-26T08:03:00.617Z,41.96
2022-08-26T08:06:02.050Z,42.15
2022-08-26T08:09:05.415Z,40.63
2022-08-26T08:12:09.407Z,41.00
2022-08-26T08:15:16.683Z,41.38
2022-08-26T08:18:20.511Z,40.50
2022-08-26T08:21:26.215Z,39.48
2022-08-26T08:24:27.760Z,39.26
2022-08-26T08:27:29.306Z,39.95
2022-08-26T08:30:31.734Z,39.58
2022-08-26T08:33:36.667Z,38.49
2022-08-26T08:36:40.092Z,37.78
2022-08-26T08:39:43.083Z,37.25
2022-08-26T08:42:47.070Z,37.54
2022-08-26T08:45:57.682Z,39.25
2022-08-26T08:49:00.028Z,40.56
2022-08-26T08:52:07.492Z,39.27
2022-08-26T08:55:11.072Z,37.77
2022-08-26T08:58:19.717Z,38.17
2022-08-26T09:01:30.338Z,37.03
2022-08-26T09:05:03.042Z,37.00
2022-08-26T09:08:12.145Z,36.60
2022-08-26T09:11:15.966Z,35.94
2022-08-26T09:14:19.097Z,37.89
2022-08-26T09:17:43.775Z,36.33
2022-08-26T09:20:56.761Z,36.29
2022-08-26T09:23:59.107Z,36.52
2022-08-26T09:27:00.593Z,36.05
2022-08-26T09:30:02.013Z,34.45
2022-08-26T09:33:10.103Z,34.90
2022-08-26T09:36:18.731Z,34.00
2022-08-26T09:39:33.109Z,34.44
2022-08-26T09:42:34.765Z,34.55
2022-08-26T09:45:36.561Z,34.92
2022-08-26T09:48:41.072Z,34.14
2022-08-26T09:51:42.732Z,34.50
2022-08-26T09:54:45.426Z,34.60
2022-08-26T09:57:54.172Z,33.59
2022-08-26T10:00:58.816Z,35.29
2022-08-26T10:04:08.832Z,33.93
2022-08-26T10:07:10.617Z,32.91
2022-08-26T10:10:22.143Z,34.99
2022-08-26T10:13:32.136Z,34.11
2022-08-26T10:16:56.321Z,32.87
2022-08-26T10:20:05.795Z,33.71
2022-08-26T10:23:27.297Z,32.93
2022-08-26T10:26:44.495Z,31.95
2022-08-26T10:29:50.614Z,33.11
2022-08-26T10:33:01.061Z,33.61
2022-08-26T10:36:30.090Z,32.50
2022-08-26T10:39:57.338Z,32.12
2022-08-26T10:43:13.986Z,33.73
2022-08-26T10:46:20.556Z,32.33
2022-08-26T10:49:22.259Z,32.26
2022-08-26T10:52:39.278Z,31.12
2022-08-26T10:56:02.768Z,30.59
2022-08-26T10:59:12.440Z,33.08
2022-08-26T11:02:41.458Z,33.14
2022-08-26T11:06:20.408Z,33.60
2022-08-26T11:09:47.540Z,33.03
2022-08-26T11:12:54.103Z,32.33
2022-08-26T11:15:55.668Z,32.93
2022-08-26T11:18:57.145Z,32.19
2022-08-26T11:22:09.993Z,32.41
2022-08-26T11:25:29.697Z,30.88
2022-08-26T11:28:37.212Z,31.90
2022-08-26T11:31:39.038Z,29.43
2022-08-26T11:35:00.444Z,30.13
2022-08-26T11:38:26.993Z,30.78
2022-08-26T11:41:30.730Z,29.19
2022-08-26T11:44:39.669Z,28.43
2022-08-26T11:47:42.127Z,28.07
2022-08-26T11:50:59.272Z,28.10
2022-08-26T11:54:16.414Z,27.74
2022-08-26T11:57:17.957Z,27.77
2022-08-26T12:00:54.361Z,26.89
2022-08-26T12:03:58.492Z,30.81
2022-08-26T12:07:02.277Z,32.17
2022-08-26T12:10:06.856Z,30.16
2022-08-26T12:13:17.693Z,29.25
2022-08-26T12:16:27.174Z,29.45
2022-08-26T12:19:33.258Z,28.13
2022-08-26T12:22:36.090Z,30.33
2022-08-26T12:25:39.314Z,30.01
2022-08-26T12:28:46.993Z,28.63
2022-08-26T12:31:48.750Z,28.63
2022-08-26T12:34:51.059Z,29.39
2022-08-26T12:37:54.503Z,29.07
2022-08-26T12:40:57.006Z,29.94
2022-08-26T12:43:58.450Z,29.81
2022-08-26T12:47:09.963Z,29.40
2022-08-26T12:50:25.249Z,29.18
2022-08-26T12:53:33.234Z,31.18
2022-08-26T12:56:40.588Z,30.26
2022-08-26T12:59:42.019Z,31.13
2022-08-26T13:02:43.530Z,30.91
2022-08-26T13:05:45.218Z,31.65
2022-08-26T13:09:10.599Z,32.13
2022-08-26T13:12:12.675Z,33.19
2022-08-26T13:15:14.173Z,32.90
2022-08-26T13:18:15.637Z,32.80
2022-08-26T13:21:20.606Z,33.83
2022-08-26T13:24:35.141Z,33.72
2022-08-26T13:27:36.751Z,33.64
2022-08-26T13:30:40.405Z,34.34
2022-08-26T13:33:44.501Z,35.08
2022-08-26T13:36:50.789Z,36.90
2022-08-26T13:39:53.570Z,40.11
2022-08-26T13:42:55.401Z,42.30
2022-08-26T13:45:57.159Z,42.17
2022-08-26T13:48:58.796Z,44.31
2022-08-26T13:52:00.293Z,46.99
2022-08-26T13:55:02.199Z,46.51
2022-08-26T13:58:03.724Z,46.38
2022-08-26T14:01:05.344Z,48.22
2022-08-26T14:04:07.411Z,49.26
2022-08-26T14:07:08.966Z,45.07
2022-08-26T14:10:11.900Z,45.25
2022-08-26T14:13:15.328Z,43.33
2022-08-26T14:16:27.170Z,41.42
2022-08-26T14:19:30.021Z,41.37
2022-08-26T14:22:32.953Z,41.00
2022-08-26T14:25:34.492Z,40.74
2022-08-26T14:28:36.175Z,40.01
2022-08-26T14:31:37.956Z,39.79
2022-08-26T14:34:41.449Z,39.98
2022-08-26T14:37:43.183Z,40.07
2022-08-26T14:40:45.077Z,42.75
2022-08-26T14:43:59.897Z,45.90
2022-08-26T14:47:04.206Z,46.74
2022-08-26T14:50:06.133Z,49.01
2022-08-26T14:53:26.429Z,51.55
2022-08-26T14:56:30.956Z,51.85
2022-08-26T14:59:49.745Z,53.97
2022-08-26T15:02:51.896Z,56.83
2022-08-26T15:05:54.565Z,56.27
2022-08-26T15:08:56.256Z,54.19
2022-08-26T15:11:58.047Z,53.81
2022-08-26T15:14:59.713Z,54.85
2022-08-26T15:18:01.345Z,57.10
2022-08-26T15:21:04.419Z,54.06
2022-08-26T15:24:06.213Z,53.17
2022-08-26T15:27:08.999Z,54.34
2022-08-26T15:30:12.284Z,55.64
2022-08-26T15:33:15.384Z,55.21
2022-08-26T15:36:17.100Z,55.18
2022-08-26T15:39:18.602Z,55.75
2022-08-26T15:42:20.946Z,55.97
2022-08-26T15:45:25.842Z,56.40
2022-08-26T15:48:28.046Z,55.21
2022-08-26T15:51:30.834Z,55.00
2022-08-26T15:54:32.652Z,56.65
2022-08-26T15:57:34.296Z,56.30
2022-08-26T16:00:36.540Z,56.46
2022-08-26T16:03:38.133Z,56.74
2022-08-26T16:06:40.992Z,56.47
2022-08-26T16:09:42.584Z,55.02
2022-08-26T16:12:44.053Z,55.36
2022-08-26T16:15:46.054Z,54.60
2022-08-26T16:18:48.392Z,54.96
2022-08-26T16:21:51.372Z,54.24
2022-08-26T16:24:57.143Z,52.83
2022-08-26T16:27:59.154Z,52.92
2022-08-26T16:31:00.694Z,52.41
2022-08-26T16:34:02.101Z,54.33
2022-08-26T16:37:03.965Z,53.23
2022-08-26T16:40:07.415Z,53.57
2022-08-26T16:43:09.057Z,53.61
2022-08-26T16:46:17.160Z,53.73
2022-08-26T16:49:18.908Z,53.93
2022-08-26T16:52:20.482Z,54.08
2022-08-26T16:55:22.907Z,54.64
2022-08-26T16:58:24.360Z,54.61
2022-08-26T17:01:25.997Z,54.95
2022-08-26T17:04:27.920Z,53.72
2022-08-26T17:07:29.362Z,54.50
2022-08-26T17:10:31.836Z,55.21
2022-08-26T17:13:35.084Z,55.21
2022-08-26T17:16:37.831Z,54.94
2022-08-26T17:19:42.913Z,60.80
2022-08-26T17:22:50.828Z,69.83
2022-08-26T17:25:52.320Z,72.75
2022-08-26T17:28:54.820Z,72.34
2022-08-26T17:31:56.376Z,70.30
2022-08-26T17:34:57.894Z,72.68
2022-08-26T17:37:59.879Z,69.26
2022-08-26T17:41:01.357Z,70.56
2022-08-26T17:44:03.103Z,68.44
2022-08-26T17:47:05.332Z,67.27
2022-08-26T17:50:09.863Z,70.88
2022-08-26T17:53:12.581Z,68.04
2022-08-26T17:56:25.375Z,70.55
2022-08-26T17:59:30.471Z,67.91
2022-08-26T18:02:32.274Z,70.85
2022-08-26T18:05:33.731Z,69.93
2022-08-26T18:08:35.273Z,68.04
2022-08-26T18:11:37.018Z,69.09
2022-08-26T18:14:38.415Z,69.47
2022-08-26T18:17:40.292Z,66.84
2022-08-26T18:20:43.862Z,68.47
2022-08-26T18:23:46.920Z,69.40
2022-08-26T18:26:49.550Z,69.75
2022-08-26T18:29:51.155Z,70.59
2022-08-26T18:32:52.850Z,71.00
2022-08-26T18:35:54.229Z,71.35
2022-08-26T18:38:57.034Z,70.50
2022-08-26T18:41:58.790Z,68.99
2022-08-26T18:45:00.154Z,70.68
2022-08-26T18:48:03.419Z,70.07
2022-08-26T18:51:06.697Z,67.83
2022-08-26T18:54:08.303Z,67.77
2022-08-26T18:57:09.839Z,68.73
2022-08-26T19:00:12.143Z,69.02
2022-08-26T19:03:18.414Z,68.68
2022-08-26T19:06:23.210Z,69.08
2022-08-26T19:09:26.383Z,69.84
2022-08-26T19:12:29.544Z,68.31
2022-08-26T19:15:41.089Z,69.70
2022-08-26T19:18:42.685Z,69.32
2022-08-26T19:21:44.474Z,69.63
2022-08-26T19:24:45.943Z,67.84
2022-08-26T19:27:47.411Z,68.77
2022-08-26T19:30:52.985Z,69.33
2022-08-26T19:33:56.639Z,69.41
2022-08-26T19:36:58.577Z,70.41
2022-08-26T19:40:00.182Z,70.41
2022-08-26T19:43:01.785Z,70.14
2022-08-26T19:46:10.671Z,71.20
2022-08-26T19:49:12.180Z,69.96
2022-08-26T19:52:13.877Z,69.63
2022-08-26T19:55:18.036Z,69.27
2022-08-26T19:58:19.583Z,69.95
2022-08-26T20:01:21.236Z,69.70
2022-08-26T20:04:23.001Z,70.15
2022-08-26T20:07:24.443Z,69.86
2022-08-26T20:10:26.086Z,72.07
2022-08-26T20:13:28.233Z,71.27
2022-08-26T20:16:30.011Z,69.26
2022-08-26T20:19:50.101Z,68.69
2022-08-26T20:22:51.576Z,71.31
2022-08-26T20:25:53.014Z,71.82
2022-08-26T20:28:55.143Z,74.45
2022-08-26T20:31:56.639Z,73.08
2022-08-26T20:34:58.151Z,74.11
2022-08-26T20:37:59.921Z,74.46
2022-08-26T20:41:01.656Z,73.87
2022-08-26T20:44:04.129Z,74.34
2022-08-26T20:47:06.145Z,73.69
2022-08-26T20:50:08.519Z,74.46
2022-08-26T20:53:10.064Z,72.43
2022-08-26T20:56:13.856Z,74.20
2022-08-26T20:59:16.316Z,72.68
2022-08-26T21:02:18.123Z,71.63
2022-08-26T21:05:19.564Z,71.81
2022-08-26T21:08:21.201Z,72.22
2022-08-26T21:11:23.328Z,72.98
2022-08-26T21:14:25.969Z,70.70
2022-08-26T21:17:29.318Z,72.15
2022-08-26T21:20:32.478Z,71.23
2022-08-26T21:23:34.822Z,71.15
2022-08-26T21:26:36.638Z,70.82
2022-08-26T21:29:38.003Z,71.59
2022-08-26T21:32:39.620Z,71.30
2022-08-26T21:35:41.075Z,71.53
2022-08-26T21:38:42.604Z,72.28
2022-08-26T21:41:45.405Z,72.31
2022-08-26T21:44:52.719Z,71.74
2022-08-26T21:47:54.526Z,72.17
2022-08-26T21:50:57.080Z,72.20
2022-08-26T21:54:00.478Z,71.81
2022-08-26T21:57:02.005Z,71.27
2022-08-26T22:00:08.223Z,71.44
2022-08-26T22:03:09.676Z,71.26
2022-08-26T22:06:11.263Z,71.78
2022-08-26T22:09:15.205Z,71.22
2022-08-26T22:12:18.297Z,71.16
2022-08-26T22:15:22.908Z,71.62
2022-08-26T22:18:26.540Z,71.52
2022-08-26T22:21:28.412Z,70.51
2022-08-26T22:24:29.868Z,70.44
2022-08-26T22:27:31.328Z,71.97
2022-08-26T22:30:35.113Z,69.67
2022-08-26T22:33:37.919Z,71.93
2022-08-26T22:36:43.611Z,71.76
2022-08-26T22:39:46.131Z,71.59
2022-08-26T22:42:55.722Z,71.86
2022-08-26T22:46:00.309Z,72.48
2022-08-26T22:49:04.311Z,72.58
2022-08-26T22:52:05.787Z,72.57
2022-08-26T22:55:08.101Z,71.99
2022-08-26T22:58:11.576Z,71.28
2022-08-26T23:01:13.771Z,70.81
2022-08-26T23:04:15.467Z,71.10
2022-08-26T23:07:16.911Z,72.08
2022-08-26T23:10:18.376Z,71.31
2022-08-26T23:13:20.305Z,72.95
2022-08-26T23:16:21.819Z,73.51
2022-08-26T23:19:23.792Z,73.75
2022-08-26T23:22:25.330Z,73.51
2022-08-26T23:25:29.490Z,73.43
2022-08-26T23:28:31.989Z,72.90
2022-08-26T23:31:33.942Z,73.08
2022-08-26T23:34:53.812Z,72.91
2022-08-26T23:37:57.775Z,72.62
2022-08-26T23:41:00.427Z,72.89
2022-08-26T23:44:06.331Z,71.71
2022-08-26T23:47:08.365Z,71.34
2022-08-26T23:50:09.966Z,71.65
2022-08-26T23:53:19.229Z,71.81
2022-08-26T23:56:20.781Z,71.79
2022-08-26T23:59:22.232Z,71.75
